Time;durP1;ratioP1;P1;durP2;ratioP2;P2;SDS_P1;SDS_P2;PMS_P1;PMS_P2;Temp;Humidity;BMP_temperature;BMP_pressure;BME280_temperature;BME280_humidity;BME280_pressure;Samples;Min_cycle;Max_cycle;Signal;HPM_P1;HPM_P2
2022/03/30 00:01:27;;;;;;;24.23;18.43;;;11.60;99.90;;;;;;4966851;28;20926;-66
2022/03/30 00:03:53;;;;;;;25.60;18.77;;;11.60;99.90;;;;;;4969649;28;20510;-67
2022/03/30 00:06:18;;;;;;;26.57;19.03;;;11.70;99.90;;;;;;4968031;28;20709;-69
2022/03/30 00:08:44;;;;;;;26.77;18.97;;;11.70;99.90;;;;;;4963994;28;20548;-70
2022/03/30 00:11:11;;;;;;;23.00;17.20;;;11.80;99.90;;;;;;4968188;28;20643;-66
2022/03/30 00:13:37;;;;;;;26.73;20.00;;;11.90;99.90;;;;;;4970110;28;20287;-66
2022/03/30 00:16:04;;;;;;;22.67;16.60;;;12.00;99.90;;;;;;4968485;28;20478;-66
2022/03/30 00:18:30;;;;;;;22.43;15.90;;;12.00;99.90;;;;;;4969803;28;20443;-69
2022/03/30 00:20:55;;;;;;;24.20;18.03;;;12.10;99.90;;;;;;4970654;28;21171;-66
2022/03/30 00:23:21;;;;;;;24.57;19.37;;;12.10;99.90;;;;;;4974019;28;20234;-66
2022/03/30 00:25:46;;;;;;;23.73;18.23;;;12.00;99.90;;;;;;4973068;28;20635;-68
2022/03/30 00:28:12;;;;;;;26.47;19.07;;;12.00;99.90;;;;;;4974883;28;20271;-67
2022/03/30 00:30:38;;;;;;;27.30;17.60;;;11.90;99.90;;;;;;4973273;28;20191;-67
2022/03/30 00:33:04;;;;;;;28.90;17.17;;;12.00;99.90;;;;;;4970505;28;20635;-67
2022/03/30 00:35:29;;;;;;;22.37;17.17;;;12.00;99.90;;;;;;4974013;28;20486;-67
2022/03/30 00:37:55;;;;;;;24.10;18.07;;;12.00;99.90;;;;;;4975491;28;20199;-66
2022/03/30 00:40:20;;;;;;;24.13;19.03;;;12.00;99.90;;;;;;4970842;28;20557;-66
2022/03/30 00:42:46;;;;;;;20.33;17.73;;;12.00;99.90;;;;;;4968948;28;20247;-67
2022/03/30 00:45:17;;;;;;;26.40;18.47;;;12.00;99.90;;;;;;4972077;28;20200;-66
2022/03/30 00:47:44;;;;;;;18.93;16.43;;;12.10;99.90;;;;;;4970773;28;20517;-66
2022/03/30 00:50:13;;;;;;;23.97;18.30;;;12.10;99.90;;;;;;4971667;28;20577;-66
2022/03/30 00:52:39;;;;;;;22.27;17.50;;;12.20;99.90;;;;;;4974335;28;20443;-68
2022/03/30 00:55:06;;;;;;;26.50;18.43;;;12.10;99.90;;;;;;4972699;28;20603;-67
2022/03/30 00:57:35;;;;;;;25.10;17.53;;;12.00;99.90;;;;;;4973557;28;20551;-66
2022/03/30 01:00:00;;;;;;;28.73;19.67;;;11.90;99.90;;;;;;5002341;28;20463;-66
2022/03/30 01:02:26;;;;;;;26.03;20.53;;;11.90;99.90;;;;;;4970801;28;20486;-67
2022/03/30 01:04:52;;;;;;;25.13;19.57;;;11.90;99.90;;;;;;4964458;28;20231;-67
2022/03/30 01:07:18;;;;;;;26.23;19.10;;;11.90;99.90;;;;;;4972752;28;20184;-68
2022/03/30 01:09:43;;;;;;;26.20;18.67;;;11.90;99.90;;;;;;4972356;28;20513;-67
2022/03/30 01:12:10;;;;;;;28.70;19.13;;;11.90;99.90;;;;;;4970875;28;20677;-66
2022/03/30 01:14:37;;;;;;;25.60;19.37;;;12.00;99.90;;;;;;4973807;28;20208;-66
2022/03/30 01:17:04;;;;;;;24.10;16.10;;;12.00;99.90;;;;;;4973213;28;20464;-66
2022/03/30 01:19:31;;;;;;;25.20;19.47;;;12.00;99.90;;;;;;4971864;28;20531;-67
2022/03/30 01:21:57;;;;;;;22.53;18.00;;;11.80;99.90;;;;;;4972363;28;20466;-69
2022/03/30 01:24:23;;;;;;;25.27;18.33;;;11.80;99.90;;;;;;4973663;28;20870;-66
2022/03/30 01:26:49;;;;;;;27.93;19.67;;;11.80;99.90;;;;;;4972608;28;20470;-67
2022/03/30 01:34:44;;;;;;;21.10;17.97;;;11.90;99.90;;;;;;4969821;28;20466;-65
2022/03/30 01:37:11;;;;;;;34.83;19.33;;;11.90;99.90;;;;;;4972180;28;20452;-67
2022/03/30 01:39:37;;;;;;;29.20;18.80;;;11.90;99.90;;;;;;4973602;28;20662;-67
2022/03/30 01:42:04;;;;;;;24.40;19.10;;;11.90;99.90;;;;;;4969765;28;20513;-67
2022/03/30 01:44:30;;;;;;;27.03;19.00;;;12.00;99.90;;;;;;4967662;28;20456;-67
2022/03/30 01:46:56;;;;;;;24.30;19.23;;;12.00;99.90;;;;;;4971246;28;20519;-67
2022/03/30 01:49:21;;;;;;;22.43;20.03;;;12.00;99.90;;;;;;4972865;28;20550;-69
2022/03/30 01:51:51;;;;;;;24.50;19.07;;;12.10;99.90;;;;;;4971938;28;20187;-66
2022/03/30 01:54:17;;;;;;;26.70;18.43;;;11.90;99.90;;;;;;4973063;28;20254;-66
2022/03/30 01:56:43;;;;;;;20.47;17.63;;;11.80;99.90;;;;;;4972299;28;20439;-67
2022/03/30 01:59:09;;;;;;;28.43;18.73;;;11.80;99.90;;;;;;4972545;28;20439;-66
2022/03/30 02:01:34;;;;;;;20.83;17.50;;;11.80;99.90;;;;;;4973159;28;20196;-68
2022/03/30 02:04:00;;;;;;;24.47;17.30;;;11.80;99.90;;;;;;4972191;28;20275;-66
2022/03/30 02:06:26;;;;;;;22.73;19.07;;;11.90;99.90;;;;;;4971978;28;20627;-66
2022/03/30 02:08:52;;;;;;;29.20;18.23;;;12.00;99.90;;;;;;4969590;28;20950;-66
2022/03/30 02:11:17;;;;;;;25.70;17.90;;;12.10;99.90;;;;;;4972631;28;20443;-66
2022/03/30 02:13:43;;;;;;;21.90;18.80;;;12.00;99.90;;;;;;4974177;28;20208;-70
2022/03/30 02:16:08;;;;;;;23.13;17.90;;;11.80;99.90;;;;;;4972160;28;20187;-66
2022/03/30 02:18:35;;;;;;;28.43;19.83;;;11.70;99.90;;;;;;4968921;28;20239;-66
2022/03/30 02:21:00;;;;;;;27.07;18.80;;;11.70;99.90;;;;;;4968189;28;20260;-67
2022/03/30 02:23:26;;;;;;;25.83;18.57;;;11.60;99.90;;;;;;4971206;28;20455;-66
2022/03/30 02:25:52;;;;;;;23.87;20.47;;;11.60;99.90;;;;;;4971383;28;20200;-66
2022/03/30 02:28:17;;;;;;;24.30;18.40;;;11.60;99.90;;;;;;4969535;28;20192;-66
2022/03/30 02:30:43;;;;;;;26.10;19.30;;;11.60;99.90;;;;;;4986814;28;20230;-68
2022/03/30 02:33:08;;;;;;;27.43;18.40;;;11.60;99.90;;;;;;4971721;28;20561;-66
2022/03/30 02:35:34;;;;;;;31.17;20.80;;;11.70;99.90;;;;;;4968965;28;20196;-66
2022/03/30 02:38:00;;;;;;;27.43;19.37;;;11.70;99.90;;;;;;4968076;28;20181;-66
2022/03/30 02:40:25;;;;;;;25.73;20.10;;;11.60;99.90;;;;;;4971357;28;20192;-67
2022/03/30 02:42:51;;;;;;;22.60;17.80;;;11.70;99.90;;;;;;4972342;28;20436;-66
2022/03/30 02:45:17;;;;;;;24.17;19.87;;;11.60;99.90;;;;;;4967595;28;20208;-66
2022/03/30 02:50:26;;;;;;;30.90;18.57;;;11.60;99.90;;;;;;4967731;28;21005;-69
2022/03/30 02:52:52;;;;;;;25.00;21.63;;;11.60;99.90;;;;;;4968169;28;20514;-66
2022/03/30 02:55:18;;;;;;;21.57;18.23;;;11.60;99.90;;;;;;4970248;28;20298;-66
2022/03/30 02:57:43;;;;;;;26.03;19.23;;;11.60;99.90;;;;;;4967484;28;20291;-66
2022/03/30 03:00:09;;;;;;;24.93;19.17;;;11.60;99.90;;;;;;4969191;28;20306;-69
2022/03/30 03:02:35;;;;;;;26.87;21.00;;;11.60;99.90;;;;;;4971485;28;20181;-66
2022/03/30 03:05:02;;;;;;;28.47;19.30;;;11.60;99.90;;;;;;4970049;28;20459;-66
2022/03/30 03:07:28;;;;;;;22.33;18.10;;;11.60;99.90;;;;;;4964598;28;20184;-66
2022/03/30 03:09:53;;;;;;;27.50;17.40;;;11.60;99.90;;;;;;4969753;28;20440;-66
2022/03/30 03:12:19;;;;;;;23.10;19.10;;;11.60;99.90;;;;;;4970630;28;20559;-66
2022/03/30 03:14:45;;;;;;;23.93;16.37;;;11.50;99.90;;;;;;4969644;28;20671;-65
2022/03/30 03:17:10;;;;;;;25.83;19.07;;;11.50;99.90;;;;;;4970959;28;20617;-66
2022/03/30 03:19:36;;;;;;;22.17;18.33;;;11.50;99.90;;;;;;4967442;28;20862;-66
2022/03/30 03:22:02;;;;;;;27.73;18.63;;;11.50;99.90;;;;;;4971747;28;20721;-66
2022/03/30 03:24:27;;;;;;;29.03;17.33;;;11.50;99.90;;;;;;4970970;28;20228;-68
2022/03/30 03:26:53;;;;;;;28.73;16.47;;;11.60;99.90;;;;;;4970996;28;20180;-66
2022/03/30 03:29:18;;;;;;;20.80;18.40;;;11.60;99.90;;;;;;4971240;28;20225;-66
2022/03/30 03:31:44;;;;;;;29.33;18.50;;;11.60;99.90;;;;;;4970007;28;20186;-73
2022/03/30 03:34:09;;;;;;;21.30;16.80;;;11.60;99.90;;;;;;4970475;28;20188;-66
2022/03/30 03:36:35;;;;;;;23.47;16.80;;;11.60;99.90;;;;;;4971715;28;20545;-66
2022/03/30 03:39:00;;;;;;;28.67;16.87;;;11.60;99.90;;;;;;4971374;28;20180;-64
2022/03/30 03:41:26;;;;;;;24.43;18.07;;;11.70;99.90;;;;;;4969432;28;20211;-66
2022/03/30 03:43:52;;;;;;;24.20;17.90;;;11.70;99.90;;;;;;4969940;28;20196;-66
2022/03/30 03:46:17;;;;;;;21.30;17.20;;;11.70;99.90;;;;;;4971259;28;20188;-66
2022/03/30 03:48:43;;;;;;;28.83;17.00;;;11.80;99.90;;;;;;4969665;28;20255;-66
2022/03/30 03:51:08;;;;;;;24.97;17.40;;;11.80;99.90;;;;;;4970555;28;20732;-66
2022/03/30 03:53:35;;;;;;;25.67;17.33;;;11.70;99.90;;;;;;4970959;28;20277;-67
2022/03/30 03:56:04;;;;;;;21.20;18.27;;;11.70;99.90;;;;;;4974489;28;20203;-66
2022/03/30 03:58:30;;;;;;;32.37;17.97;;;11.70;99.90;;;;;;4977351;28;22132;-66
2022/03/30 04:00:56;;;;;;;24.17;17.80;;;11.60;99.90;;;;;;4978726;28;20882;-68
2022/03/30 04:03:21;;;;;;;29.33;18.37;;;11.60;99.90;;;;;;4975488;28;20574;-68
2022/03/30 04:05:47;;;;;;;23.30;18.27;;;11.60;99.90;;;;;;4970533;28;20439;-67
2022/03/30 04:08:13;;;;;;;19.87;17.47;;;11.50;99.90;;;;;;4980833;28;20388;-65
2022/03/30 04:10:39;;;;;;;28.80;18.70;;;11.40;99.90;;;;;;4974982;28;20188;-68
2022/03/30 04:13:06;;;;;;;24.93;19.03;;;11.40;99.90;;;;;;4972911;28;20187;-64
2022/03/30 04:15:32;;;;;;;25.83;18.83;;;11.40;99.90;;;;;;4964992;28;20447;-67
2022/03/30 04:17:58;;;;;;;27.13;19.20;;;11.40;99.90;;;;;;4974143;28;20436;-66
2022/03/30 04:20:23;;;;;;;24.13;17.83;;;11.30;99.90;;;;;;4970248;28;22082;-68
2022/03/30 04:22:49;;;;;;;35.03;18.33;;;11.30;99.90;;;;;;4975379;28;20184;-68
2022/03/30 04:25:15;;;;;;;22.40;16.47;;;11.20;99.90;;;;;;4972130;28;20196;-68
2022/03/30 04:27:45;;;;;;;22.60;15.67;;;11.20;99.90;;;;;;4972144;28;20208;-68
2022/03/30 04:30:11;;;;;;;24.80;18.33;;;11.10;99.90;;;;;;4971782;28;20593;-65
2022/03/30 04:32:36;;;;;;;27.83;17.27;;;11.10;99.90;;;;;;4974889;28;20830;-65
2022/03/30 04:35:02;;;;;;;23.50;16.43;;;11.10;99.90;;;;;;4973888;28;20573;-68
2022/03/30 04:37:27;;;;;;;26.77;16.67;;;10.90;99.90;;;;;;4975983;28;20181;-67
2022/03/30 04:39:53;;;;;;;28.70;16.50;;;10.70;99.90;;;;;;4975255;28;20649;-68
2022/03/30 04:42:20;;;;;;;20.20;16.27;;;10.60;99.90;;;;;;4980171;28;20184;-68
2022/03/30 04:44:46;;;;;;;24.20;18.13;;;10.40;99.90;;;;;;4991082;28;20196;-65
2022/03/30 04:47:11;;;;;;;27.93;16.97;;;10.30;99.90;;;;;;4976062;28;20455;-68
2022/03/30 04:49:37;;;;;;;32.53;17.60;;;10.20;99.90;;;;;;4974488;28;20444;-68
2022/03/30 04:52:03;;;;;;;25.13;16.90;;;10.10;99.90;;;;;;4978483;28;20203;-66
2022/03/30 04:54:29;;;;;;;32.53;19.80;;;10.10;99.90;;;;;;4981553;28;20219;-68
2022/03/30 04:56:54;;;;;;;24.83;17.83;;;10.00;99.90;;;;;;4985545;28;20435;-68
2022/03/30 04:59:20;;;;;;;32.83;18.00;;;10.00;99.90;;;;;;4987859;28;20640;-66
2022/03/30 05:01:46;;;;;;;33.07;17.77;;;10.00;99.90;;;;;;5002260;28;20188;-65
2022/03/30 05:04:12;;;;;;;26.97;17.30;;;9.90;99.90;;;;;;4980073;28;20212;-68
2022/03/30 05:06:37;;;;;;;34.33;20.87;;;9.90;99.90;;;;;;4970433;28;20435;-69
2022/03/30 05:09:03;;;;;;;30.87;18.73;;;9.90;99.90;;;;;;4972882;28;20565;-68
2022/03/30 05:11:29;;;;;;;35.50;18.87;;;9.80;99.90;;;;;;4969568;28;20185;-67
2022/03/30 05:13:54;;;;;;;34.00;18.57;;;9.70;99.90;;;;;;4974080;28;20257;-67
2022/03/30 05:16:20;;;;;;;28.53;18.80;;;9.70;99.90;;;;;;4973861;28;20459;-69
2022/03/30 05:18:45;;;;;;;36.50;19.40;;;9.70;99.90;;;;;;4970960;28;20187;-69
2022/03/30 05:21:11;;;;;;;31.63;19.60;;;9.60;99.90;;;;;;4966874;28;20581;-67
2022/03/30 05:23:36;;;;;;;39.97;22.27;;;9.60;99.90;;;;;;4967317;28;20200;-68
2022/03/30 05:26:03;;;;;;;32.00;19.60;;;9.60;99.90;;;;;;4970840;28;20176;-68
2022/03/30 05:28:29;;;;;;;27.70;18.90;;;9.70;99.90;;;;;;4974352;28;20207;-69
2022/03/30 05:30:55;;;;;;;29.63;17.97;;;9.60;99.90;;;;;;4968724;28;20440;-68
2022/03/30 05:33:20;;;;;;;30.10;18.93;;;9.60;99.90;;;;;;4982191;28;20212;-69
2022/03/30 05:35:48;;;;;;;34.23;19.77;;;9.60;99.90;;;;;;4974139;28;20593;-69
2022/03/30 05:38:13;;;;;;;38.13;20.10;;;9.70;99.90;;;;;;4971219;28;20192;-69
2022/03/30 05:40:40;;;;;;;28.60;19.10;;;9.70;99.90;;;;;;4972193;28;20467;-67
2022/03/30 05:43:05;;;;;;;25.43;18.33;;;9.70;99.90;;;;;;4973752;28;20184;-67
2022/03/30 05:45:31;;;;;;;28.43;20.97;;;9.80;99.90;;;;;;4973208;28;20443;-69
2022/03/30 05:47:56;;;;;;;29.60;20.20;;;9.80;99.90;;;;;;4971711;28;20960;-68
2022/03/30 05:50:23;;;;;;;33.57;20.70;;;9.80;99.90;;;;;;4973527;28;20705;-68
2022/03/30 05:52:49;;;;;;;39.67;20.13;;;9.80;99.90;;;;;;4973132;28;20181;-68
2022/03/30 05:55:14;;;;;;;24.20;18.10;;;9.80;99.90;;;;;;4971666;28;20482;-68
2022/03/30 05:57:40;;;;;;;38.00;19.50;;;9.80;99.90;;;;;;4972213;28;20525;-69
2022/03/30 06:00:07;;;;;;;27.10;20.33;;;9.80;99.90;;;;;;4970033;28;20586;-68
2022/03/30 06:02:33;;;;;;;33.53;22.47;;;9.70;99.90;;;;;;4972629;28;20199;-67
2022/03/30 06:04:58;;;;;;;32.40;19.87;;;9.70;99.90;;;;;;4971025;28;21004;-68
2022/03/30 06:07:24;;;;;;;33.50;21.17;;;9.70;99.90;;;;;;4970754;28;20188;-68
2022/03/30 06:09:49;;;;;;;37.00;20.50;;;9.70;99.90;;;;;;4971511;28;20184;-69
2022/03/30 06:12:15;;;;;;;27.70;20.17;;;9.70;99.90;;;;;;4973601;28;20605;-69
2022/03/30 06:14:41;;;;;;;34.70;22.17;;;9.80;99.90;;;;;;4973635;28;20204;-68
2022/03/30 06:17:07;;;;;;;23.53;18.60;;;9.90;99.90;;;;;;4974486;28;20463;-68
2022/03/30 06:19:34;;;;;;;30.47;18.97;;;10.00;99.90;;;;;;4972261;28;20563;-68
2022/03/30 06:22:08;;;;;;;27.07;18.27;;;10.00;99.90;;;;;;4972716;28;21021;-67
2022/03/30 06:24:36;;;;;;;37.23;21.17;;;10.00;99.90;;;;;;4985145;28;20495;-69
2022/03/30 06:27:04;;;;;;;29.17;19.23;;;10.00;99.90;;;;;;4969905;28;20439;-68
2022/03/30 06:29:30;;;;;;;25.00;17.90;;;10.00;99.90;;;;;;4968691;28;20534;-69
2022/03/30 06:31:56;;;;;;;30.93;18.97;;;10.00;99.90;;;;;;4973593;28;20526;-69
2022/03/30 06:34:22;;;;;;;32.70;19.10;;;10.10;99.90;;;;;;4973823;28;20490;-69
2022/03/30 06:36:47;;;;;;;26.80;17.60;;;10.10;99.90;;;;;;4973144;28;20176;-69
2022/03/30 06:39:13;;;;;;;27.37;17.70;;;10.10;99.90;;;;;;4973869;28;20497;-69
2022/03/30 06:41:39;;;;;;;28.70;20.80;;;10.10;99.90;;;;;;4974129;28;20697;-69
2022/03/30 06:44:04;;;;;;;26.73;17.37;;;10.20;99.90;;;;;;5012730;28;20199;-67
2022/03/30 06:46:33;;;;;;;25.57;19.33;;;10.20;99.90;;;;;;5010824;28;20775;-69
2022/03/30 06:49:00;;;;;;;24.60;18.73;;;10.20;99.90;;;;;;5007869;28;20193;-68
2022/03/30 06:51:26;;;;;;;30.97;21.07;;;10.20;99.90;;;;;;5009800;28;20524;-68
2022/03/30 06:53:51;;;;;;;33.30;20.27;;;10.20;99.90;;;;;;5008994;28;20980;-68
2022/03/30 06:56:17;;;;;;;37.40;24.77;;;10.10;99.90;;;;;;5010729;28;20186;-69
2022/03/30 06:58:42;;;;;;;26.70;20.43;;;10.10;99.90;;;;;;5011548;28;20201;-68
2022/03/30 07:01:08;;;;;;;28.33;18.77;;;10.00;99.90;;;;;;5005234;28;20214;-67
2022/03/30 07:03:34;;;;;;;32.37;19.70;;;9.90;99.90;;;;;;5004481;28;20198;-68
2022/03/30 07:06:03;;;;;;;27.20;18.07;;;9.90;99.90;;;;;;5009092;28;20438;-67
2022/03/30 07:11:12;;;;;;;28.23;18.03;;;9.80;99.90;;;;;;4989731;28;20432;-68
2022/03/30 07:13:38;;;;;;;34.83;18.90;;;9.70;99.90;;;;;;5002111;28;20690;-68
2022/03/30 07:16:04;;;;;;;27.47;18.40;;;9.70;99.90;;;;;;5006417;28;20179;-68
2022/03/30 07:18:30;;;;;;;27.20;18.23;;;9.70;99.90;;;;;;5005748;28;20209;-68
2022/03/30 07:20:56;;;;;;;30.07;19.10;;;9.80;99.90;;;;;;5009243;28;20552;-67
2022/03/30 07:23:23;;;;;;;25.20;19.90;;;9.80;99.90;;;;;;5002359;28;20465;-68
2022/03/30 07:25:49;;;;;;;30.10;19.80;;;9.80;99.90;;;;;;5006835;28;20240;-67
2022/03/30 07:28:16;;;;;;;26.07;18.73;;;9.90;99.90;;;;;;5002077;28;20438;-68
2022/03/30 07:30:43;;;;;;;28.23;18.70;;;9.80;99.90;;;;;;5005601;28;20449;-68
2022/03/30 07:33:09;;;;;;;27.43;17.73;;;9.70;99.90;;;;;;5006053;28;20445;-67
2022/03/30 07:35:34;;;;;;;30.63;19.87;;;9.60;99.90;;;;;;5005939;28;20823;-67
2022/03/30 07:38:01;;;;;;;31.97;20.13;;;9.50;99.90;;;;;;5003611;28;20624;-68
2022/03/30 07:40:29;;;;;;;39.57;20.07;;;9.50;99.90;;;;;;5005182;28;20908;-67
2022/03/30 07:42:55;;;;;;;29.97;17.80;;;9.50;99.90;;;;;;5005352;28;20441;-67
2022/03/30 07:45:22;;;;;;;34.47;20.07;;;9.40;99.90;;;;;;4997414;28;20426;-68
2022/03/30 07:47:47;;;;;;;34.97;18.70;;;9.40;99.90;;;;;;5002352;28;20429;-67
2022/03/30 07:50:14;;;;;;;28.03;19.90;;;9.40;99.90;;;;;;5003118;28;20459;-67
2022/03/30 07:52:40;;;;;;;38.73;20.40;;;9.40;99.90;;;;;;5005415;28;20204;-67
2022/03/30 07:55:07;;;;;;;28.87;18.60;;;9.40;99.90;;;;;;5006423;28;20482;-68
2022/03/30 07:57:36;;;;;;;29.27;20.10;;;9.40;99.90;;;;;;4999991;28;20444;-67
2022/03/30 08:00:05;;;;;;;28.03;18.23;;;9.40;99.90;;;;;;5002954;28;20461;-68
2022/03/30 08:02:30;;;;;;;27.20;18.97;;;9.40;99.90;;;;;;5004155;28;20445;-68
2022/03/30 08:04:56;;;;;;;25.67;20.10;;;9.40;99.90;;;;;;5002257;28;20578;-68
2022/03/30 08:07:22;;;;;;;34.50;20.87;;;9.50;99.90;;;;;;5002091;28;20237;-68
2022/03/30 08:09:48;;;;;;;34.30;22.10;;;9.50;99.90;;;;;;5005304;28;20193;-67
2022/03/30 08:12:15;;;;;;;26.80;16.90;;;9.50;99.90;;;;;;5005135;28;20520;-67
2022/03/30 08:14:42;;;;;;;31.70;18.20;;;9.50;99.90;;;;;;5000134;28;20485;-67
2022/03/30 08:17:08;;;;;;;36.03;18.17;;;9.60;99.90;;;;;;5001893;28;21025;-67
2022/03/30 08:19:34;;;;;;;26.43;17.87;;;9.60;99.90;;;;;;5004300;28;20501;-67
2022/03/30 08:24:46;;;;;;;31.17;17.40;;;9.70;99.90;;;;;;5005325;28;20220;-67
2022/03/30 08:27:17;;;;;;;26.30;20.27;;;9.80;99.90;;;;;;4997855;28;20445;-67
2022/03/30 08:29:46;;;;;;;24.17;18.30;;;9.90;99.90;;;;;;5003688;28;20444;-67
2022/03/30 08:32:13;;;;;;;34.63;17.80;;;9.90;99.90;;;;;;5004054;28;20444;-67
2022/03/30 08:34:39;;;;;;;19.97;17.87;;;9.90;99.90;;;;;;5005596;28;21045;-68
2022/03/30 08:37:05;;;;;;;28.10;15.40;;;10.10;99.90;;;;;;5002883;28;20442;-67
2022/03/30 08:39:31;;;;;;;20.80;15.30;;;10.00;99.90;;;;;;5005240;28;20468;-67
2022/03/30 08:41:56;;;;;;;28.50;16.40;;;10.00;99.90;;;;;;5007831;28;20437;-67
2022/03/30 08:44:22;;;;;;;24.33;17.43;;;10.00;99.90;;;;;;5008760;28;20778;-69
2022/03/30 08:46:48;;;;;;;24.97;16.60;;;10.00;99.90;;;;;;5005995;28;20693;-67
2022/03/30 08:49:15;;;;;;;25.83;16.90;;;10.00;99.90;;;;;;5007149;28;20171;-68
2022/03/30 08:51:42;;;;;;;24.57;15.40;;;10.00;99.90;;;;;;5009054;28;20445;-67
2022/03/30 08:54:12;;;;;;;34.80;15.63;;;10.00;99.90;;;;;;5005199;28;20473;-67
2022/03/30 08:56:41;;;;;;;23.67;15.10;;;10.20;99.90;;;;;;5006407;28;20448;-68
2022/03/30 08:59:09;;;;;;;25.63;16.60;;;10.30;99.90;;;;;;5007383;28;20450;-67
2022/03/30 09:01:37;;;;;;;27.50;14.20;;;10.40;99.90;;;;;;5008389;28;20468;-68
2022/03/30 09:04:09;;;;;;;22.20;14.00;;;10.40;99.90;;;;;;5008563;28;20588;-68
2022/03/30 09:06:50;;;;;;;27.87;15.53;;;10.50;99.90;;;;;;5004985;28;20943;-68
2022/03/30 09:09:26;;;;;;;22.37;13.73;;;10.70;99.90;;;;;;5008169;28;20514;-68
2022/03/30 09:11:55;;;;;;;19.57;13.90;;;10.70;99.90;;;;;;5008813;28;21091;-68
2022/03/30 09:14:23;;;;;;;26.20;14.87;;;10.80;99.90;;;;;;5006181;28;20596;-68
2022/03/30 09:16:51;;;;;;;27.63;14.00;;;10.90;99.90;;;;;;5007495;28;20939;-68
2022/03/30 09:19:18;;;;;;;19.03;15.30;;;11.00;99.90;;;;;;5009835;28;20517;-68
2022/03/30 09:21:57;;;;;;;22.30;12.87;;;11.10;99.90;;;;;;5012054;28;20465;-67
2022/03/30 09:24:28;;;;;;;23.47;14.17;;;11.00;99.90;;;;;;5011029;28;20453;-67
2022/03/30 09:26:55;;;;;;;21.37;13.60;;;10.90;99.90;;;;;;5009369;28;20790;-67
2022/03/30 09:29:23;;;;;;;22.17;14.40;;;10.80;99.90;;;;;;5010916;28;20437;-68
2022/03/30 09:31:50;;;;;;;19.97;14.70;;;10.90;99.90;;;;;;5012371;28;20533;-67
2022/03/30 09:34:16;;;;;;;26.20;14.17;;;10.90;99.90;;;;;;5012969;28;20449;-67
2022/03/30 09:36:43;;;;;;;28.20;17.10;;;11.00;99.90;;;;;;5010442;28;20434;-67
2022/03/30 09:39:28;;;;;;;21.03;15.03;;;10.90;99.90;;;;;;5010305;28;20434;-68
2022/03/30 09:41:55;;;;;;;19.60;14.20;;;10.90;99.90;;;;;;5022834;28;20886;-68
2022/03/30 09:44:21;;;;;;;24.07;17.03;;;11.00;99.90;;;;;;5011871;28;20506;-68
2022/03/30 09:46:54;;;;;;;19.03;13.10;;;11.20;99.90;;;;;;5009855;28;20845;-67
2022/03/30 09:49:41;;;;;;;24.80;13.20;;;11.30;99.90;;;;;;5008251;28;20945;-68
2022/03/30 09:52:22;;;;;;;22.03;17.33;;;11.20;99.90;;;;;;5011902;28;20429;-68
2022/03/30 09:54:49;;;;;;;19.77;14.30;;;11.20;99.90;;;;;;5012084;28;20476;-67
2022/03/30 09:57:21;;;;;;;24.23;14.77;;;11.40;99.90;;;;;;5008348;28;20540;-67
2022/03/30 10:00:05;;;;;;;23.33;13.53;;;11.50;99.90;;;;;;5026633;28;20433;-67
2022/03/30 10:02:34;;;;;;;20.67;13.60;;;11.60;99.90;;;;;;5010603;28;20434;-67
2022/03/30 10:05:00;;;;;;;22.77;14.53;;;11.50;99.90;;;;;;5012062;28;20449;-67
2022/03/30 10:07:28;;;;;;;19.90;14.27;;;11.50;99.90;;;;;;5007724;28;20532;-67
2022/03/30 10:09:55;;;;;;;16.10;12.60;;;11.50;99.90;;;;;;5011691;28;20496;-67
2022/03/30 10:12:21;;;;;;;21.97;14.77;;;11.50;99.90;;;;;;5011064;28;20433;-67
2022/03/30 10:14:48;;;;;;;25.03;13.70;;;11.60;99.90;;;;;;5011559;28;20524;-68
2022/03/30 10:17:15;;;;;;;22.80;12.43;;;11.80;99.90;;;;;;5006663;28;20183;-67
2022/03/30 10:19:44;;;;;;;20.03;15.97;;;12.00;99.90;;;;;;5010103;28;20560;-67
2022/03/30 10:22:16;;;;;;;26.87;17.40;;;12.20;99.90;;;;;;5011486;28;20442;-67
2022/03/30 10:25:13;;;;;;;21.43;13.70;;;12.30;99.90;;;;;;5013458;28;20454;-67
2022/03/30 10:27:53;;;;;;;27.07;17.30;;;12.60;99.90;;;;;;5004615;28;20915;-68
2022/03/30 10:30:27;;;;;;;18.83;12.83;;;12.90;99.90;;;;;;5010896;28;20443;-67
2022/03/30 10:32:55;;;;;;;23.67;14.47;;;13.10;99.90;;;;;;5011574;28;20462;-68
2022/03/30 10:35:21;;;;;;;27.10;14.17;;;13.20;99.90;;;;;;5011722;28;20441;-66
2022/03/30 10:37:59;;;;;;;23.10;12.93;;;13.30;99.90;;;;;;5006256;28;21812;-66
2022/03/30 10:40:26;;;;;;;27.13;13.87;;;13.00;99.90;;;;;;5011175;28;20486;-65
2022/03/30 10:42:59;;;;;;;20.57;12.53;;;13.00;99.90;;;;;;5012224;28;20495;-66
2022/03/30 10:45:43;;;;;;;17.40;12.70;;;13.00;99.90;;;;;;5011405;28;20546;-65
2022/03/30 10:48:19;;;;;;;18.57;13.27;;;12.80;99.90;;;;;;5006569;28;20436;-66
2022/03/30 10:51:08;;;;;;;20.33;13.80;;;12.70;99.90;;;;;;5010685;28;20995;-65
2022/03/30 10:53:34;;;;;;;19.60;11.30;;;12.60;99.90;;;;;;5001411;28;20497;-68
2022/03/30 10:56:08;;;;;;;28.33;18.10;;;12.80;99.90;;;;;;5010651;28;20445;-68
2022/03/30 10:59:01;;;;;;;25.53;12.43;;;12.80;99.90;;;;;;5007532;28;20465;-67
2022/03/30 11:01:29;;;;;;;20.00;11.50;;;12.70;99.90;;;;;;5011206;28;20461;-67
2022/03/30 11:04:18;;;;;;;16.47;11.10;;;12.80;99.90;;;;;;5011614;28;20488;-68
2022/03/30 11:06:47;;;;;;;12.50;10.03;;;12.70;99.90;;;;;;5003360;28;20439;-68
2022/03/30 11:09:28;;;;;;;13.80;12.10;;;12.60;99.90;;;;;;5010189;28;20434;-67
2022/03/30 11:12:00;;;;;;;16.70;12.20;;;12.70;99.90;;;;;;5006025;28;20876;-67
2022/03/30 11:14:44;;;;;;;13.07;11.13;;;12.60;99.90;;;;;;5010912;28;20465;-67
2022/03/30 11:17:13;;;;;;;19.30;12.20;;;12.70;99.90;;;;;;5008090;28;20925;-67
2022/03/30 11:19:47;;;;;;;16.37;10.47;;;12.70;99.90;;;;;;5008678;28;20441;-67
2022/03/30 11:22:13;;;;;;;12.27;10.97;;;12.80;99.90;;;;;;5010800;28;20499;-67
2022/03/30 11:24:41;;;;;;;15.13;12.13;;;12.70;99.90;;;;;;5011380;28;20572;-67
2022/03/30 11:27:07;;;;;;;15.53;10.90;;;12.60;99.90;;;;;;5004553;28;20552;-67
2022/03/30 11:29:45;;;;;;;19.00;12.57;;;12.60;99.90;;;;;;5008412;28;20521;-68
2022/03/30 11:32:22;;;;;;;19.13;13.77;;;12.50;99.90;;;;;;5006473;28;20191;-67
2022/03/30 11:34:52;;;;;;;22.67;12.27;;;12.60;99.90;;;;;;5009059;28;20532;-67
2022/03/30 11:37:19;;;;;;;16.27;12.43;;;12.70;99.90;;;;;;4999252;28;20465;-67
2022/03/30 11:39:44;;;;;;;18.67;13.40;;;12.90;99.90;;;;;;5005031;28;20477;-67
2022/03/30 11:42:10;;;;;;;23.47;14.80;;;13.00;99.90;;;;;;5006004;28;20478;-67
2022/03/30 11:47:24;;;;;;;19.70;14.80;;;13.20;99.90;;;;;;5002415;28;20197;-67
2022/03/30 11:49:55;;;;;;;19.80;14.53;;;12.90;99.90;;;;;;5005141;28;20472;-67
2022/03/30 11:52:23;;;;;;;20.20;15.10;;;12.90;99.90;;;;;;5005556;28;20965;-67
2022/03/30 11:54:51;;;;;;;21.80;14.57;;;12.80;99.90;;;;;;5002960;28;20472;-67
2022/03/30 11:57:18;;;;;;;23.77;16.90;;;13.00;99.90;;;;;;5002625;28;20528;-67
2022/03/30 12:00:05;;;;;;;17.10;13.80;;;13.20;99.90;;;;;;5005107;28;20496;-67
2022/03/30 12:02:30;;;;;;;22.03;15.80;;;13.20;99.90;;;;;;4997497;28;20441;-67
2022/03/30 12:04:57;;;;;;;21.50;15.97;;;13.10;99.90;;;;;;5006075;28;20449;-68
2022/03/30 12:07:23;;;;;;;28.63;17.10;;;13.30;99.90;;;;;;5002307;28;20237;-67
2022/03/30 12:09:53;;;;;;;21.67;17.20;;;13.40;99.90;;;;;;5005264;28;20492;-67
2022/03/30 12:12:26;;;;;;;19.30;15.83;;;13.30;99.90;;;;;;5005423;28;21027;-67
2022/03/30 12:14:56;;;;;;;16.93;15.07;;;13.10;99.90;;;;;;5006529;28;20802;-67
2022/03/30 12:17:26;;;;;;;19.20;17.10;;;12.80;99.90;;;;;;5006061;28;20429;-67
2022/03/30 12:19:53;;;;;;;22.63;17.27;;;12.80;99.90;;;;;;5006780;28;20433;-67
2022/03/30 12:22:19;;;;;;;18.10;16.17;;;12.80;99.90;;;;;;5009108;28;20484;-67
2022/03/30 12:24:45;;;;;;;20.20;18.10;;;13.00;99.90;;;;;;5007684;28;20464;-67
2022/03/30 12:27:11;;;;;;;19.37;16.03;;;13.10;99.90;;;;;;5005664;28;20441;-67
2022/03/30 12:29:38;;;;;;;23.30;17.40;;;13.10;99.90;;;;;;5008859;28;20185;-67
2022/03/30 12:32:04;;;;;;;22.73;16.07;;;13.40;99.90;;;;;;5008723;28;20504;-67
2022/03/30 12:34:34;;;;;;;18.40;16.40;;;13.50;99.90;;;;;;5010572;28;20523;-67
2022/03/30 12:37:02;;;;;;;22.10;17.43;;;13.40;99.90;;;;;;5006324;28;20452;-67
2022/03/30 12:39:38;;;;;;;19.90;17.40;;;13.50;99.90;;;;;;5007481;28;20445;-67
2022/03/30 12:42:24;;;;;;;21.33;18.37;;;13.50;99.90;;;;;;5005569;28;20568;-67
2022/03/30 12:44:54;;;;;;;21.87;17.60;;;13.50;99.90;;;;;;5010318;28;20508;-67
2022/03/30 12:47:28;;;;;;;24.17;17.53;;;13.30;99.90;;;;;;5006543;28;20833;-68